KPTS/PTS METAR and TAF weather

Enter ICAO airport designator
Station Type Date Time Source
KPTS METAR 2020/09/20 00:35 UTC NOAA

KPTS 200035Z AUTO 06003KT 10SM CLR 19/12 A3016 RMK AO2 T01850122


Station Type Date Time Source
KPTS Decoded METAR 2020/09/20 00:35 UTC NOAA

Station name not available
Sep 19, 2020 - 08:35 PM EDT / 2020.09.20 0035 UTC
Wind: from the ENE (060 degrees) at 3 MPH (3 KT):0
Visibility: 10 mile(s):0
Sky conditions: clear
Temperature: 65.3 F (18.5 C)
Dew Point: 54.0 F (12.2 C)
Relative Humidity: 66%
Pressure (altimeter): 30.16 in. Hg (1021 hPa)
ob: KPTS 200035Z AUTO 06003KT 10SM CLR 19/12 A3016 RMK AO2 T01850122
cycle: 0

Station Type Date Time Source
KPTS TAF UTC NOAA

Error!

Example: see airport list